sensor_id;sensor_type;location;lat;lon;timestamp;P1;durP1;ratioP1;P2;durP2;ratioP2
1831;SDS011;1680;48.106;11.708;2023-04-19T00:00:32;9.97;;;8.97;;
1831;SDS011;1680;48.106;11.708;2023-04-19T00:03:01;9.23;;;7.70;;
1831;SDS011;1680;48.106;11.708;2023-04-19T00:05:28;9.20;;;8.40;;
1831;SDS011;1680;48.106;11.708;2023-04-19T00:07:55;9.10;;;8.20;;
1831;SDS011;1680;48.106;11.708;2023-04-19T00:10:23;9.40;;;8.40;;
1831;SDS011;1680;48.106;11.708;2023-04-19T00:12:50;8.70;;;7.70;;
1831;SDS011;1680;48.106;11.708;2023-04-19T00:15:18;9.23;;;8.33;;
1831;SDS011;1680;48.106;11.708;2023-04-19T00:17:45;9.80;;;8.60;;
1831;SDS011;1680;48.106;11.708;2023-04-19T00:20:13;9.90;;;8.90;;
1831;SDS011;1680;48.106;11.708;2023-04-19T00:22:41;10.83;;;9.77;;
1831;SDS011;1680;48.106;11.708;2023-04-19T00:25:08;9.70;;;8.70;;
1831;SDS011;1680;48.106;11.708;2023-04-19T00:27:35;9.30;;;8.40;;
1831;SDS011;1680;48.106;11.708;2023-04-19T00:30:03;11.10;;;9.73;;
1831;SDS011;1680;48.106;11.708;2023-04-19T00:32:31;10.80;;;9.77;;
1831;SDS011;1680;48.106;11.708;2023-04-19T00:34:58;10.00;;;9.00;;
1831;SDS011;1680;48.106;11.708;2023-04-19T00:37:26;9.53;;;8.30;;
1831;SDS011;1680;48.106;11.708;2023-04-19T00:39:54;11.00;;;9.30;;
1831;SDS011;1680;48.106;11.708;2023-04-19T00:42:21;9.67;;;8.73;;
1831;SDS011;1680;48.106;11.708;2023-04-19T00:44:48;10.27;;;8.77;;
1831;SDS011;1680;48.106;11.708;2023-04-19T00:47:15;10.07;;;7.90;;
1831;SDS011;1680;48.106;11.708;2023-04-19T00:49:43;10.07;;;8.70;;
1831;SDS011;1680;48.106;11.708;2023-04-19T00:52:10;9.50;;;8.40;;
1831;SDS011;1680;48.106;11.708;2023-04-19T00:54:39;10.30;;;9.30;;
1831;SDS011;1680;48.106;11.708;2023-04-19T00:57:09;10.17;;;9.17;;
1831;SDS011;1680;48.106;11.708;2023-04-19T00:59:37;10.17;;;9.23;;
1831;SDS011;1680;48.106;11.708;2023-04-19T01:02:04;9.37;;;8.50;;
1831;SDS011;1680;48.106;11.708;2023-04-19T01:04:32;10.17;;;9.07;;
1831;SDS011;1680;48.106;11.708;2023-04-19T01:07:00;9.37;;;8.47;;
1831;SDS011;1680;48.106;11.708;2023-04-19T01:09:28;9.93;;;8.83;;
1831;SDS011;1680;48.106;11.708;2023-04-19T01:11:57;9.50;;;8.50;;
1831;SDS011;1680;48.106;11.708;2023-04-19T01:14:25;10.43;;;8.67;;
1831;SDS011;1680;48.106;11.708;2023-04-19T01:16:52;10.67;;;9.13;;
1831;SDS011;1680;48.106;11.708;2023-04-19T01:19:20;10.27;;;9.30;;
1831;SDS011;1680;48.106;11.708;2023-04-19T01:21:47;10.10;;;9.10;;
1831;SDS011;1680;48.106;11.708;2023-04-19T01:24:15;12.00;;;10.27;;
1831;SDS011;1680;48.106;11.708;2023-04-19T01:26:43;9.67;;;8.60;;
1831;SDS011;1680;48.106;11.708;2023-04-19T01:29:10;9.70;;;8.70;;
1831;SDS011;1680;48.106;11.708;2023-04-19T01:31:37;10.53;;;9.43;;
1831;SDS011;1680;48.106;11.708;2023-04-19T01:34:04;11.40;;;9.63;;
1831;SDS011;1680;48.106;11.708;2023-04-19T01:36:31;11.83;;;10.17;;
1831;SDS011;1680;48.106;11.708;2023-04-19T01:38:58;10.93;;;9.73;;
1831;SDS011;1680;48.106;11.708;2023-04-19T01:41:27;10.47;;;9.30;;
1831;SDS011;1680;48.106;11.708;2023-04-19T01:43:55;11.40;;;10.20;;
1831;SDS011;1680;48.106;11.708;2023-04-19T01:46:22;11.17;;;10.00;;
1831;SDS011;1680;48.106;11.708;2023-04-19T01:48:49;9.87;;;8.90;;
1831;SDS011;1680;48.106;11.708;2023-04-19T01:51:16;10.17;;;9.17;;
1831;SDS011;1680;48.106;11.708;2023-04-19T01:53:45;11.07;;;9.97;;
1831;SDS011;1680;48.106;11.708;2023-04-19T01:56:16;11.53;;;10.37;;
1831;SDS011;1680;48.106;11.708;2023-04-19T01:58:45;10.70;;;9.60;;
1831;SDS011;1680;48.106;11.708;2023-04-19T02:01:12;10.63;;;9.47;;
1831;SDS011;1680;48.106;11.708;2023-04-19T02:03:39;11.70;;;10.60;;
1831;SDS011;1680;48.106;11.708;2023-04-19T02:06:09;12.73;;;9.67;;
1831;SDS011;1680;48.106;11.708;2023-04-19T02:08:37;11.57;;;10.47;;
1831;SDS011;1680;48.106;11.708;2023-04-19T02:11:07;11.67;;;10.47;;
1831;SDS011;1680;48.106;11.708;2023-04-19T02:13:35;10.17;;;9.17;;
1831;SDS011;1680;48.106;11.708;2023-04-19T02:16:04;11.90;;;10.70;;
1831;SDS011;1680;48.106;11.708;2023-04-19T02:18:31;11.07;;;9.97;;
1831;SDS011;1680;48.106;11.708;2023-04-19T02:21:02;13.27;;;11.97;;
1831;SDS011;1680;48.106;11.708;2023-04-19T02:23:30;11.40;;;10.20;;
1831;SDS011;1680;48.106;11.708;2023-04-19T02:25:57;12.60;;;11.30;;
1831;SDS011;1680;48.106;11.708;2023-04-19T02:28:25;12.23;;;11.03;;
1831;SDS011;1680;48.106;11.708;2023-04-19T02:30:52;10.70;;;9.70;;
1831;SDS011;1680;48.106;11.708;2023-04-19T02:33:21;13.13;;;11.90;;
1831;SDS011;1680;48.106;11.708;2023-04-19T02:35:48;13.33;;;12.00;;
1831;SDS011;1680;48.106;11.708;2023-04-19T02:38:15;13.47;;;12.10;;
1831;SDS011;1680;48.106;11.708;2023-04-19T02:40:43;12.77;;;11.37;;
1831;SDS011;1680;48.106;11.708;2023-04-19T02:43:10;14.23;;;12.10;;
1831;SDS011;1680;48.106;11.708;2023-04-19T02:45:37;13.10;;;11.80;;
1831;SDS011;1680;48.106;11.708;2023-04-19T02:48:05;12.80;;;11.57;;
1831;SDS011;1680;48.106;11.708;2023-04-19T02:50:35;13.30;;;11.90;;
1831;SDS011;1680;48.106;11.708;2023-04-19T02:53:03;13.57;;;12.17;;
1831;SDS011;1680;48.106;11.708;2023-04-19T02:55:31;15.50;;;13.30;;
1831;SDS011;1680;48.106;11.708;2023-04-19T02:57:58;12.83;;;11.53;;
1831;SDS011;1680;48.106;11.708;2023-04-19T03:00:25;13.17;;;11.63;;
1831;SDS011;1680;48.106;11.708;2023-04-19T03:02:53;13.73;;;12.33;;
1831;SDS011;1680;48.106;11.708;2023-04-19T03:05:20;17.53;;;14.10;;
1831;SDS011;1680;48.106;11.708;2023-04-19T03:07:49;16.00;;;14.30;;
1831;SDS011;1680;48.106;11.708;2023-04-19T03:10:16;14.40;;;13.00;;
1831;SDS011;1680;48.106;11.708;2023-04-19T03:12:43;15.23;;;13.47;;
1831;SDS011;1680;48.106;11.708;2023-04-19T03:15:10;16.50;;;14.70;;
1831;SDS011;1680;48.106;11.708;2023-04-19T03:17:38;16.70;;;15.00;;
1831;SDS011;1680;48.106;11.708;2023-04-19T03:20:05;18.80;;;15.70;;
1831;SDS011;1680;48.106;11.708;2023-04-19T03:22:35;17.50;;;14.80;;
1831;SDS011;1680;48.106;11.708;2023-04-19T03:25:04;15.73;;;13.80;;
1831;SDS011;1680;48.106;11.708;2023-04-19T03:27:33;16.53;;;14.70;;
1831;SDS011;1680;48.106;11.708;2023-04-19T03:30:02;18.10;;;16.17;;
1831;SDS011;1680;48.106;11.708;2023-04-19T03:32:29;18.10;;;15.67;;
1831;SDS011;1680;48.106;11.708;2023-04-19T03:34:57;18.40;;;16.43;;
1831;SDS011;1680;48.106;11.708;2023-04-19T03:37:24;17.40;;;15.20;;
1831;SDS011;1680;48.106;11.708;2023-04-19T03:39:51;17.77;;;15.70;;
1831;SDS011;1680;48.106;11.708;2023-04-19T03:42:20;17.37;;;15.53;;
1831;SDS011;1680;48.106;11.708;2023-04-19T03:44:47;18.57;;;16.10;;
1831;SDS011;1680;48.106;11.708;2023-04-19T03:47:14;18.03;;;16.13;;
1831;SDS011;1680;48.106;11.708;2023-04-19T03:49:42;18.10;;;16.17;;
1831;SDS011;1680;48.106;11.708;2023-04-19T03:52:09;17.90;;;16.00;;
1831;SDS011;1680;48.106;11.708;2023-04-19T03:54:36;20.30;;;16.97;;
1831;SDS011;1680;48.106;11.708;2023-04-19T03:57:03;21.27;;;17.33;;
1831;SDS011;1680;48.106;11.708;2023-04-19T03:59:52;17.47;;;14.80;;
1831;SDS011;1680;48.106;11.708;2023-04-19T04:02:19;18.30;;;16.30;;
1831;SDS011;1680;48.106;11.708;2023-04-19T04:04:48;16.30;;;14.40;;
1831;SDS011;1680;48.106;11.708;2023-04-19T04:07:19;17.10;;;14.73;;
1831;SDS011;1680;48.106;11.708;2023-04-19T04:09:47;18.80;;;16.80;;
1831;SDS011;1680;48.106;11.708;2023-04-19T04:12:15;18.67;;;16.40;;
1831;SDS011;1680;48.106;11.708;2023-04-19T04:14:42;18.60;;;16.43;;
1831;SDS011;1680;48.106;11.708;2023-04-19T04:17:10;17.77;;;15.40;;
1831;SDS011;1680;48.106;11.708;2023-04-19T04:19:37;19.77;;;17.67;;
1831;SDS011;1680;48.106;11.708;2023-04-19T04:22:05;19.23;;;17.13;;
1831;SDS011;1680;48.106;11.708;2023-04-19T04:24:36;18.80;;;16.80;;
1831;SDS011;1680;48.106;11.708;2023-04-19T04:27:05;17.70;;;15.93;;
1831;SDS011;1680;48.106;11.708;2023-04-19T04:29:37;19.30;;;16.67;;
1831;SDS011;1680;48.106;11.708;2023-04-19T04:32:06;18.93;;;16.93;;
1831;SDS011;1680;48.106;11.708;2023-04-19T04:34:37;19.53;;;16.70;;
1831;SDS011;1680;48.106;11.708;2023-04-19T04:37:04;18.60;;;16.50;;
1831;SDS011;1680;48.106;11.708;2023-04-19T04:39:32;19.20;;;17.17;;
1831;SDS011;1680;48.106;11.708;2023-04-19T04:42:03;19.70;;;17.10;;
1831;SDS011;1680;48.106;11.708;2023-04-19T04:44:32;20.80;;;18.53;;
1831;SDS011;1680;48.106;11.708;2023-04-19T04:46:59;28.37;;;22.10;;
1831;SDS011;1680;48.106;11.708;2023-04-19T04:49:26;27.63;;;22.40;;
1831;SDS011;1680;48.106;11.708;2023-04-19T04:51:55;22.60;;;19.40;;
1831;SDS011;1680;48.106;11.708;2023-04-19T04:54:22;22.80;;;19.57;;
1831;SDS011;1680;48.106;11.708;2023-04-19T04:56:50;22.67;;;19.60;;
1831;SDS011;1680;48.106;11.708;2023-04-19T04:59:17;22.27;;;19.70;;
1831;SDS011;1680;48.106;11.708;2023-04-19T05:01:44;21.30;;;19.00;;
1831;SDS011;1680;48.106;11.708;2023-04-19T05:04:11;24.80;;;18.60;;
1831;SDS011;1680;48.106;11.708;2023-04-19T05:06:38;18.83;;;16.53;;
1831;SDS011;1680;48.106;11.708;2023-04-19T05:09:07;18.50;;;16.50;;
1831;SDS011;1680;48.106;11.708;2023-04-19T05:11:34;18.53;;;16.53;;
1831;SDS011;1680;48.106;11.708;2023-04-19T05:14:01;20.60;;;18.20;;
1831;SDS011;1680;48.106;11.708;2023-04-19T05:16:28;19.13;;;16.70;;
1831;SDS011;1680;48.106;11.708;2023-04-19T05:18:56;23.17;;;18.10;;
1831;SDS011;1680;48.106;11.708;2023-04-19T05:21:23;19.30;;;17.27;;
1831;SDS011;1680;48.106;11.708;2023-04-19T05:23:50;18.70;;;16.67;;
1831;SDS011;1680;48.106;11.708;2023-04-19T05:26:20;21.27;;;17.73;;
1831;SDS011;1680;48.106;11.708;2023-04-19T05:28:47;21.10;;;17.90;;
1831;SDS011;1680;48.106;11.708;2023-04-19T05:31:14;21.83;;;17.90;;
1831;SDS011;1680;48.106;11.708;2023-04-19T05:33:41;23.93;;;18.77;;
1831;SDS011;1680;48.106;11.708;2023-04-19T05:36:08;19.30;;;16.27;;
1831;SDS011;1680;48.106;11.708;2023-04-19T05:38:35;26.33;;;19.40;;
1831;SDS011;1680;48.106;11.708;2023-04-19T05:41:03;29.43;;;24.07;;
1831;SDS011;1680;48.106;11.708;2023-04-19T05:43:32;30.60;;;21.50;;
1831;SDS011;1680;48.106;11.708;2023-04-19T05:45:59;24.70;;;19.30;;
1831;SDS011;1680;48.106;11.708;2023-04-19T05:48:26;27.43;;;22.17;;
1831;SDS011;1680;48.106;11.708;2023-04-19T05:50:53;23.60;;;19.57;;
1831;SDS011;1680;48.106;11.708;2023-04-19T05:53:22;19.97;;;17.83;;
1831;SDS011;1680;48.106;11.708;2023-04-19T05:55:49;18.83;;;16.20;;
1831;SDS011;1680;48.106;11.708;2023-04-19T05:58:16;20.80;;;17.53;;
1831;SDS011;1680;48.106;11.708;2023-04-19T06:00:45;21.67;;;18.60;;
1831;SDS011;1680;48.106;11.708;2023-04-19T06:03:13;23.77;;;19.87;;
1831;SDS011;1680;48.106;11.708;2023-04-19T06:05:40;20.03;;;17.87;;
1831;SDS011;1680;48.106;11.708;2023-04-19T06:08:07;19.80;;;17.70;;
1831;SDS011;1680;48.106;11.708;2023-04-19T06:10:34;21.23;;;17.67;;
1831;SDS011;1680;48.106;11.708;2023-04-19T06:13:02;21.90;;;17.73;;
1831;SDS011;1680;48.106;11.708;2023-04-19T06:15:30;23.73;;;17.00;;
1831;SDS011;1680;48.106;11.708;2023-04-19T06:17:58;21.10;;;16.90;;
1831;SDS011;1680;48.106;11.708;2023-04-19T06:20:25;20.67;;;17.43;;
1831;SDS011;1680;48.106;11.708;2023-04-19T06:22:52;23.07;;;18.20;;
1831;SDS011;1680;48.106;11.708;2023-04-19T06:25:20;18.83;;;16.73;;
1831;SDS011;1680;48.106;11.708;2023-04-19T06:27:47;22.30;;;18.43;;
1831;SDS011;1680;48.106;11.708;2023-04-19T06:30:14;24.20;;;18.37;;
1831;SDS011;1680;48.106;11.708;2023-04-19T06:32:41;20.47;;;16.87;;
1831;SDS011;1680;48.106;11.708;2023-04-19T06:35:10;21.63;;;17.60;;
1831;SDS011;1680;48.106;11.708;2023-04-19T06:37:37;22.13;;;18.40;;
1831;SDS011;1680;48.106;11.708;2023-04-19T06:40:05;20.43;;;16.17;;
1831;SDS011;1680;48.106;11.708;2023-04-19T06:42:33;26.80;;;18.90;;
1831;SDS011;1680;48.106;11.708;2023-04-19T06:45:00;24.33;;;18.80;;
1831;SDS011;1680;48.106;11.708;2023-04-19T06:47:28;26.73;;;20.23;;
1831;SDS011;1680;48.106;11.708;2023-04-19T06:49:55;24.53;;;20.27;;
1831;SDS011;1680;48.106;11.708;2023-04-19T06:52:24;31.27;;;22.53;;
1831;SDS011;1680;48.106;11.708;2023-04-19T06:54:51;27.70;;;23.77;;
1831;SDS011;1680;48.106;11.708;2023-04-19T06:57:18;21.70;;;17.50;;
1831;SDS011;1680;48.106;11.708;2023-04-19T06:59:45;23.60;;;17.27;;
1831;SDS011;1680;48.106;11.708;2023-04-19T07:02:13;21.73;;;17.00;;
1831;SDS011;1680;48.106;11.708;2023-04-19T07:04:40;21.43;;;16.70;;
1831;SDS011;1680;48.106;11.708;2023-04-19T07:07:07;21.17;;;17.73;;
1831;SDS011;1680;48.106;11.708;2023-04-19T07:09:36;21.90;;;17.13;;
1831;SDS011;1680;48.106;11.708;2023-04-19T07:12:03;22.17;;;18.20;;
1831;SDS011;1680;48.106;11.708;2023-04-19T07:14:31;20.27;;;15.37;;
1831;SDS011;1680;48.106;11.708;2023-04-19T07:16:59;24.60;;;17.70;;
1831;SDS011;1680;48.106;11.708;2023-04-19T07:19:26;20.27;;;17.17;;
1831;SDS011;1680;48.106;11.708;2023-04-19T07:21:53;21.43;;;16.37;;
1831;SDS011;1680;48.106;11.708;2023-04-19T07:24:20;22.50;;;17.30;;
1831;SDS011;1680;48.106;11.708;2023-04-19T07:26:49;20.43;;;16.37;;
1831;SDS011;1680;48.106;11.708;2023-04-19T07:29:16;22.23;;;16.97;;
1831;SDS011;1680;48.106;11.708;2023-04-19T07:31:43;23.30;;;17.20;;
1831;SDS011;1680;48.106;11.708;2023-04-19T07:34:11;23.67;;;16.33;;
1831;SDS011;1680;48.106;11.708;2023-04-19T07:36:38;18.63;;;14.10;;
1831;SDS011;1680;48.106;11.708;2023-04-19T07:39:05;21.70;;;16.87;;
1831;SDS011;1680;48.106;11.708;2023-04-19T07:41:33;26.10;;;17.87;;
1831;SDS011;1680;48.106;11.708;2023-04-19T07:44:01;19.47;;;16.30;;
1831;SDS011;1680;48.106;11.708;2023-04-19T07:46:28;18.87;;;16.10;;
1831;SDS011;1680;48.106;11.708;2023-04-19T07:48:56;18.90;;;16.33;;
1831;SDS011;1680;48.106;11.708;2023-04-19T07:51:23;22.33;;;17.27;;
1831;SDS011;1680;48.106;11.708;2023-04-19T07:53:50;20.10;;;16.10;;
1831;SDS011;1680;48.106;11.708;2023-04-19T07:56:17;19.97;;;16.27;;
1831;SDS011;1680;48.106;11.708;2023-04-19T07:58:45;22.93;;;18.47;;
1831;SDS011;1680;48.106;11.708;2023-04-19T08:01:13;22.30;;;16.90;;
1831;SDS011;1680;48.106;11.708;2023-04-19T08:03:41;19.93;;;16.33;;
1831;SDS011;1680;48.106;11.708;2023-04-19T08:06:08;19.60;;;15.83;;
1831;SDS011;1680;48.106;11.708;2023-04-19T08:08:36;19.43;;;15.90;;
1831;SDS011;1680;48.106;11.708;2023-04-19T08:11:04;18.80;;;15.83;;
1831;SDS011;1680;48.106;11.708;2023-04-19T08:13:31;17.70;;;15.63;;
1831;SDS011;1680;48.106;11.708;2023-04-19T08:15:58;18.80;;;15.90;;
1831;SDS011;1680;48.106;11.708;2023-04-19T08:18:27;18.00;;;15.60;;
1831;SDS011;1680;48.106;11.708;2023-04-19T08:20:54;20.13;;;15.97;;
1831;SDS011;1680;48.106;11.708;2023-04-19T08:23:22;19.43;;;15.77;;
1831;SDS011;1680;48.106;11.708;2023-04-19T08:25:50;20.23;;;16.50;;
1831;SDS011;1680;48.106;11.708;2023-04-19T08:28:17;21.40;;;17.10;;
1831;SDS011;1680;48.106;11.708;2023-04-19T08:30:44;20.47;;;16.90;;
1831;SDS011;1680;48.106;11.708;2023-04-19T08:33:11;22.00;;;16.23;;
1831;SDS011;1680;48.106;11.708;2023-04-19T08:35:40;20.87;;;16.93;;
1831;SDS011;1680;48.106;11.708;2023-04-19T08:38:09;20.40;;;16.47;;
1831;SDS011;1680;48.106;11.708;2023-04-19T08:40:37;20.90;;;17.10;;
1831;SDS011;1680;48.106;11.708;2023-04-19T08:43:11;19.57;;;16.47;;
1831;SDS011;1680;48.106;11.708;2023-04-19T08:45:38;17.57;;;15.00;;
1831;SDS011;1680;48.106;11.708;2023-04-19T08:48:09;21.97;;;16.73;;
1831;SDS011;1680;48.106;11.708;2023-04-19T08:50:37;19.37;;;17.27;;
1831;SDS011;1680;48.106;11.708;2023-04-19T08:53:08;20.20;;;17.13;;
1831;SDS011;1680;48.106;11.708;2023-04-19T08:55:37;20.90;;;17.43;;
1831;SDS011;1680;48.106;11.708;2023-04-19T08:58:04;21.43;;;18.10;;
1831;SDS011;1680;48.106;11.708;2023-04-19T09:00:32;20.27;;;18.07;;
1831;SDS011;1680;48.106;11.708;2023-04-19T09:03:00;19.63;;;16.90;;
1831;SDS011;1680;48.106;11.708;2023-04-19T09:05:27;20.77;;;17.33;;
1831;SDS011;1680;48.106;11.708;2023-04-19T09:07:55;23.40;;;18.13;;
1831;SDS011;1680;48.106;11.708;2023-04-19T09:10:54;18.60;;;16.60;;
1831;SDS011;1680;48.106;11.708;2023-04-19T09:13:22;22.20;;;17.20;;
1831;SDS011;1680;48.106;11.708;2023-04-19T09:15:50;22.80;;;17.80;;
1831;SDS011;1680;48.106;11.708;2023-04-19T09:18:18;20.57;;;18.40;;
1831;SDS011;1680;48.106;11.708;2023-04-19T09:20:46;22.90;;;18.07;;
1831;SDS011;1680;48.106;11.708;2023-04-19T09:23:13;23.63;;;17.80;;
1831;SDS011;1680;48.106;11.708;2023-04-19T09:25:51;21.13;;;17.40;;
1831;SDS011;1680;48.106;11.708;2023-04-19T09:28:20;21.57;;;18.67;;
1831;SDS011;1680;48.106;11.708;2023-04-19T09:30:47;22.40;;;19.20;;
1831;SDS011;1680;48.106;11.708;2023-04-19T09:33:26;21.03;;;17.07;;
1831;SDS011;1680;48.106;11.708;2023-04-19T09:35:57;22.47;;;18.70;;
1831;SDS011;1680;48.106;11.708;2023-04-19T09:38:25;19.13;;;16.77;;
1831;SDS011;1680;48.106;11.708;2023-04-19T09:41:05;21.60;;;18.00;;
1831;SDS011;1680;48.106;11.708;2023-04-19T09:43:33;19.93;;;17.00;;
1831;SDS011;1680;48.106;11.708;2023-04-19T09:46:00;23.90;;;17.10;;
1831;SDS011;1680;48.106;11.708;2023-04-19T09:48:27;20.67;;;17.10;;
1831;SDS011;1680;48.106;11.708;2023-04-19T09:50:55;20.80;;;17.93;;
1831;SDS011;1680;48.106;11.708;2023-04-19T09:53:24;23.20;;;18.27;;
1831;SDS011;1680;48.106;11.708;2023-04-19T09:55:52;20.57;;;16.87;;
1831;SDS011;1680;48.106;11.708;2023-04-19T09:58:21;23.20;;;17.30;;
1831;SDS011;1680;48.106;11.708;2023-04-19T10:00:48;21.00;;;17.00;;
1831;SDS011;1680;48.106;11.708;2023-04-19T10:03:17;20.90;;;17.93;;
1831;SDS011;1680;48.106;11.708;2023-04-19T10:05:46;19.23;;;16.90;;
1831;SDS011;1680;48.106;11.708;2023-04-19T10:08:13;22.03;;;18.73;;
1831;SDS011;1680;48.106;11.708;2023-04-19T10:10:40;23.30;;;17.37;;
1831;SDS011;1680;48.106;11.708;2023-04-19T10:13:10;21.30;;;18.90;;
1831;SDS011;1680;48.106;11.708;2023-04-19T10:15:40;19.53;;;17.10;;
1831;SDS011;1680;48.106;11.708;2023-04-19T10:18:08;20.70;;;17.80;;
1831;SDS011;1680;48.106;11.708;2023-04-19T10:20:38;20.70;;;17.03;;
1831;SDS011;1680;48.106;11.708;2023-04-19T10:23:08;19.57;;;16.33;;
1831;SDS011;1680;48.106;11.708;2023-04-19T10:25:36;19.83;;;16.37;;
1831;SDS011;1680;48.106;11.708;2023-04-19T10:28:04;19.63;;;17.20;;
1831;SDS011;1680;48.106;11.708;2023-04-19T10:30:31;19.50;;;17.13;;
1831;SDS011;1680;48.106;11.708;2023-04-19T10:32:59;21.03;;;17.00;;
1831;SDS011;1680;48.106;11.708;2023-04-19T10:35:32;22.97;;;18.90;;
1831;SDS011;1680;48.106;11.708;2023-04-19T10:38:05;19.73;;;15.77;;
1831;SDS011;1680;48.106;11.708;2023-04-19T10:40:53;18.63;;;15.90;;
1831;SDS011;1680;48.106;11.708;2023-04-19T10:43:24;21.60;;;16.57;;
1831;SDS011;1680;48.106;11.708;2023-04-19T10:45:52;18.13;;;15.93;;
1831;SDS011;1680;48.106;11.708;2023-04-19T10:48:33;21.30;;;15.70;;
1831;SDS011;1680;48.106;11.708;2023-04-19T10:51:11;18.90;;;16.90;;
1831;SDS011;1680;48.106;11.708;2023-04-19T10:53:47;18.43;;;16.23;;
1831;SDS011;1680;48.106;11.708;2023-04-19T10:56:16;19.00;;;15.97;;
1831;SDS011;1680;48.106;11.708;2023-04-19T11:01:39;19.77;;;16.83;;
1831;SDS011;1680;48.106;11.708;2023-04-19T11:04:09;20.07;;;16.20;;
1831;SDS011;1680;48.106;11.708;2023-04-19T11:06:38;20.87;;;17.70;;
1831;SDS011;1680;48.106;11.708;2023-04-19T11:09:25;20.83;;;15.80;;
1831;SDS011;1680;48.106;11.708;2023-04-19T11:11:56;20.43;;;16.90;;
1831;SDS011;1680;48.106;11.708;2023-04-19T11:14:25;17.43;;;15.63;;
1831;SDS011;1680;48.106;11.708;2023-04-19T11:16:52;17.47;;;15.67;;
1831;SDS011;1680;48.106;11.708;2023-04-19T11:19:21;18.10;;;15.73;;
1831;SDS011;1680;48.106;11.708;2023-04-19T11:21:49;18.17;;;16.23;;
1831;SDS011;1680;48.106;11.708;2023-04-19T11:24:16;17.90;;;15.40;;
1831;SDS011;1680;48.106;11.708;2023-04-19T11:26:45;19.57;;;16.27;;
1831;SDS011;1680;48.106;11.708;2023-04-19T11:29:13;18.10;;;14.13;;
1831;SDS011;1680;48.106;11.708;2023-04-19T11:31:42;21.37;;;16.67;;
1831;SDS011;1680;48.106;11.708;2023-04-19T11:34:10;19.50;;;16.00;;
1831;SDS011;1680;48.106;11.708;2023-04-19T11:36:47;19.27;;;15.93;;
1831;SDS011;1680;48.106;11.708;2023-04-19T11:39:16;18.30;;;15.43;;
1831;SDS011;1680;48.106;11.708;2023-04-19T11:41:43;20.10;;;16.90;;
1831;SDS011;1680;48.106;11.708;2023-04-19T11:44:12;18.10;;;15.53;;
1831;SDS011;1680;48.106;11.708;2023-04-19T11:46:40;20.10;;;17.30;;
1831;SDS011;1680;48.106;11.708;2023-04-19T11:49:07;21.10;;;17.43;;
1831;SDS011;1680;48.106;11.708;2023-04-19T11:51:35;22.07;;;18.50;;
1831;SDS011;1680;48.106;11.708;2023-04-19T11:54:12;24.47;;;18.40;;
1831;SDS011;1680;48.106;11.708;2023-04-19T11:56:58;20.20;;;18.00;;
1831;SDS011;1680;48.106;11.708;2023-04-19T11:59:27;21.57;;;18.30;;
1831;SDS011;1680;48.106;11.708;2023-04-19T12:01:54;23.27;;;18.50;;
1831;SDS011;1680;48.106;11.708;2023-04-19T12:04:21;22.43;;;18.40;;
1831;SDS011;1680;48.106;11.708;2023-04-19T12:06:55;24.57;;;19.33;;
1831;SDS011;1680;48.106;11.708;2023-04-19T12:09:25;23.33;;;19.40;;
1831;SDS011;1680;48.106;11.708;2023-04-19T12:11:52;23.93;;;20.13;;
1831;SDS011;1680;48.106;11.708;2023-04-19T12:14:20;24.70;;;20.20;;
1831;SDS011;1680;48.106;11.708;2023-04-19T12:19:33;25.13;;;20.50;;
1831;SDS011;1680;48.106;11.708;2023-04-19T12:22:12;23.97;;;19.67;;
1831;SDS011;1680;48.106;11.708;2023-04-19T12:24:41;22.67;;;18.50;;
1831;SDS011;1680;48.106;11.708;2023-04-19T12:27:09;21.27;;;17.83;;
1831;SDS011;1680;48.106;11.708;2023-04-19T12:29:36;21.53;;;17.30;;
1831;SDS011;1680;48.106;11.708;2023-04-19T12:32:04;9.97;;;8.87;;
1831;SDS011;1680;48.106;11.708;2023-04-19T12:34:32;7.60;;;6.80;;
1831;SDS011;1680;48.106;11.708;2023-04-19T12:36:59;8.50;;;7.00;;
1831;SDS011;1680;48.106;11.708;2023-04-19T12:39:28;7.43;;;6.70;;
1831;SDS011;1680;48.106;11.708;2023-04-19T12:41:57;7.73;;;6.90;;
1831;SDS011;1680;48.106;11.708;2023-04-19T12:44:25;7.90;;;6.53;;
1831;SDS011;1680;48.106;11.708;2023-04-19T12:46:52;7.87;;;7.07;;
1831;SDS011;1680;48.106;11.708;2023-04-19T12:49:21;7.50;;;6.50;;
1831;SDS011;1680;48.106;11.708;2023-04-19T12:51:49;8.30;;;7.40;;
1831;SDS011;1680;48.106;11.708;2023-04-19T12:54:16;7.73;;;6.90;;
1831;SDS011;1680;48.106;11.708;2023-04-19T12:56:43;8.13;;;7.33;;
1831;SDS011;1680;48.106;11.708;2023-04-19T12:59:12;7.50;;;6.70;;
1831;SDS011;1680;48.106;11.708;2023-04-19T13:01:39;8.63;;;7.83;;
1831;SDS011;1680;48.106;11.708;2023-04-19T13:04:06;7.93;;;6.30;;
1831;SDS011;1680;48.106;11.708;2023-04-19T13:06:35;8.03;;;7.20;;
1831;SDS011;1680;48.106;11.708;2023-04-19T13:09:04;8.50;;;7.53;;
1831;SDS011;1680;48.106;11.708;2023-04-19T13:11:31;8.10;;;6.97;;
1831;SDS011;1680;48.106;11.708;2023-04-19T13:13:58;8.90;;;7.57;;
1831;SDS011;1680;48.106;11.708;2023-04-19T13:16:26;8.97;;;8.07;;
1831;SDS011;1680;48.106;11.708;2023-04-19T13:18:54;8.60;;;7.70;;
1831;SDS011;1680;48.106;11.708;2023-04-19T13:21:21;9.30;;;7.83;;
1831;SDS011;1680;48.106;11.708;2023-04-19T13:23:48;9.90;;;8.90;;
1831;SDS011;1680;48.106;11.708;2023-04-19T13:26:16;9.77;;;8.77;;
1831;SDS011;1680;48.106;11.708;2023-04-19T13:28:43;9.00;;;8.10;;
1831;SDS011;1680;48.106;11.708;2023-04-19T13:31:10;9.10;;;7.50;;
1831;SDS011;1680;48.106;11.708;2023-04-19T13:33:39;7.83;;;7.13;;
1831;SDS011;1680;48.106;11.708;2023-04-19T13:36:06;7.83;;;7.03;;
1831;SDS011;1680;48.106;11.708;2023-04-19T13:38:33;8.23;;;7.43;;
1831;SDS011;1680;48.106;11.708;2023-04-19T13:41:01;6.70;;;6.10;;
1831;SDS011;1680;48.106;11.708;2023-04-19T13:43:28;6.60;;;5.50;;
1831;SDS011;1680;48.106;11.708;2023-04-19T13:45:56;6.00;;;5.40;;
1831;SDS011;1680;48.106;11.708;2023-04-19T13:48:23;5.63;;;4.83;;
1831;SDS011;1680;48.106;11.708;2023-04-19T13:50:54;5.43;;;4.90;;
1831;SDS011;1680;48.106;11.708;2023-04-19T13:53:21;6.23;;;5.63;;
1831;SDS011;1680;48.106;11.708;2023-04-19T13:55:49;5.90;;;5.30;;
1831;SDS011;1680;48.106;11.708;2023-04-19T13:58:17;5.97;;;5.40;;
1831;SDS011;1680;48.106;11.708;2023-04-19T14:00:44;6.77;;;6.10;;
1831;SDS011;1680;48.106;11.708;2023-04-19T14:03:12;7.53;;;6.43;;
1831;SDS011;1680;48.106;11.708;2023-04-19T14:05:39;7.70;;;6.77;;
1831;SDS011;1680;48.106;11.708;2023-04-19T14:08:08;6.13;;;5.53;;
1831;SDS011;1680;48.106;11.708;2023-04-19T14:10:35;5.60;;;5.10;;
1831;SDS011;1680;48.106;11.708;2023-04-19T14:13:02;4.90;;;4.50;;
1831;SDS011;1680;48.106;11.708;2023-04-19T14:15:30;3.70;;;3.40;;
1831;SDS011;1680;48.106;11.708;2023-04-19T14:17:57;3.63;;;3.33;;
1831;SDS011;1680;48.106;11.708;2023-04-19T14:20:24;3.93;;;3.57;;
1831;SDS011;1680;48.106;11.708;2023-04-19T14:22:51;4.33;;;4.03;;
1831;SDS011;1680;48.106;11.708;2023-04-19T14:25:21;4.10;;;3.70;;
1831;SDS011;1680;48.106;11.708;2023-04-19T14:27:48;4.57;;;3.97;;
1831;SDS011;1680;48.106;11.708;2023-04-19T14:30:16;5.20;;;4.63;;
1831;SDS011;1680;48.106;11.708;2023-04-19T14:32:43;5.80;;;5.20;;
1831;SDS011;1680;48.106;11.708;2023-04-19T14:35:10;5.83;;;4.90;;
1831;SDS011;1680;48.106;11.708;2023-04-19T14:37:37;5.83;;;5.23;;
1831;SDS011;1680;48.106;11.708;2023-04-19T14:40:05;5.90;;;5.40;;
1831;SDS011;1680;48.106;11.708;2023-04-19T14:42:34;5.57;;;5.07;;
1831;SDS011;1680;48.106;11.708;2023-04-19T14:45:01;6.30;;;5.70;;
1831;SDS011;1680;48.106;11.708;2023-04-19T14:47:29;6.67;;;5.97;;
1831;SDS011;1680;48.106;11.708;2023-04-19T14:49:56;6.83;;;6.20;;
1831;SDS011;1680;48.106;11.708;2023-04-19T14:52:23;6.43;;;5.83;;